<?xml version="1.0" encoding="UTF-8" standalone="no" ?>
<gpx xmlns="http://www.topografix.com/GPX/1/1" xmlns:xsi="http://www.w3.org/2001/XMLSchema-instance" xsi:schemaLocation="http://www.topografix.com/GPX/1/1 http://www.topografix.com/GPX/1/1/gpx.xsd" version="1.1" creator="VisuGPX - https://www.visugpx.com">
  <metadata>
    <name>Rando santé au \&quot;château\&quot;</name>
    <desc><![CDATA[Randonnée au château, jardin anglais, jardin de diane, jardin français, bois et hauts murs.]]></desc>
  </metadata>
  <trk>
    <name><![CDATA[2 déc. 2014 09:33:22]]></name>
    <cmt><![CDATA[2 déc. 2014 09:33:22]]></cmt>
    <trkseg>
      <trkpt lat="48.39799" lon="2.70194">
        <ele>78</ele>
        <time>2014-12-02T08:33:23Z</time>
      </trkpt>
      <trkpt lat="48.39801" lon="2.70188">
        <ele>77</ele>
        <time>2014-12-02T08:33:24Z</time>
      </trkpt>
      <trkpt lat="48.39804" lon="2.70185">
        <ele>74</ele>
        <time>2014-12-02T08:33:38Z</time>
      </trkpt>
      <trkpt lat="48.39808" lon="2.70185">
        <ele>72</ele>
        <time>2014-12-02T08:33:51Z</time>
      </trkpt>
      <trkpt lat="48.39808" lon="2.70189">
        <ele>71</ele>
        <time>2014-12-02T08:34:03Z</time>
      </trkpt>
      <trkpt lat="48.39813" lon="2.70186">
        <ele>71</ele>
        <time>2014-12-02T08:34:08Z</time>
      </trkpt>
      <trkpt lat="48.39818" lon="2.70185">
        <ele>71</ele>
        <time>2014-12-02T08:34:12Z</time>
      </trkpt>
      <trkpt lat="48.39847" lon="2.70178">
        <ele>68</ele>
        <time>2014-12-02T08:34:49Z</time>
      </trkpt>
      <trkpt lat="48.39865" lon="2.70168">
        <ele>68</ele>
        <time>2014-12-02T08:35:04Z</time>
      </trkpt>
      <trkpt lat="48.39874" lon="2.70165">
        <ele>69</ele>
        <time>2014-12-02T08:35:14Z</time>
      </trkpt>
      <trkpt lat="48.39912" lon="2.70161">
        <ele>68</ele>
        <time>2014-12-02T08:35:47Z</time>
      </trkpt>
      <trkpt lat="48.39917" lon="2.70148">
        <ele>68</ele>
        <time>2014-12-02T08:35:56Z</time>
      </trkpt>
      <trkpt lat="48.39922" lon="2.70104">
        <ele>73</ele>
        <time>2014-12-02T08:36:22Z</time>
      </trkpt>
      <trkpt lat="48.39921" lon="2.7009">
        <ele>72</ele>
        <time>2014-12-02T08:36:30Z</time>
      </trkpt>
      <trkpt lat="48.39917" lon="2.70063">
        <ele>73</ele>
        <time>2014-12-02T08:36:45Z</time>
      </trkpt>
      <trkpt lat="48.39916" lon="2.70035">
        <ele>72</ele>
        <time>2014-12-02T08:37:00Z</time>
      </trkpt>
      <trkpt lat="48.39912" lon="2.70021">
        <ele>71</ele>
        <time>2014-12-02T08:37:09Z</time>
      </trkpt>
      <trkpt lat="48.39911" lon="2.69993">
        <ele>75</ele>
        <time>2014-12-02T08:37:25Z</time>
      </trkpt>
      <trkpt lat="48.39908" lon="2.69979">
        <ele>75</ele>
        <time>2014-12-02T08:37:34Z</time>
      </trkpt>
      <trkpt lat="48.39901" lon="2.6992">
        <ele>77</ele>
        <time>2014-12-02T08:38:04Z</time>
      </trkpt>
      <trkpt lat="48.39898" lon="2.69891">
        <ele>78</ele>
        <time>2014-12-02T08:38:20Z</time>
      </trkpt>
      <trkpt lat="48.39898" lon="2.69877">
        <ele>77</ele>
        <time>2014-12-02T08:38:26Z</time>
      </trkpt>
      <trkpt lat="48.3989" lon="2.69822">
        <ele>71</ele>
        <time>2014-12-02T08:38:59Z</time>
      </trkpt>
      <trkpt lat="48.39887" lon="2.69809">
        <ele>71</ele>
        <time>2014-12-02T08:39:08Z</time>
      </trkpt>
      <trkpt lat="48.39883" lon="2.69797">
        <ele>71</ele>
        <time>2014-12-02T08:39:16Z</time>
      </trkpt>
      <trkpt lat="48.39882" lon="2.69783">
        <ele>71</ele>
        <time>2014-12-02T08:39:24Z</time>
      </trkpt>
      <trkpt lat="48.39877" lon="2.69741">
        <ele>72</ele>
        <time>2014-12-02T08:39:44Z</time>
      </trkpt>
      <trkpt lat="48.39879" lon="2.69727">
        <ele>72</ele>
        <time>2014-12-02T08:39:53Z</time>
      </trkpt>
      <trkpt lat="48.39876" lon="2.69699">
        <ele>72</ele>
        <time>2014-12-02T08:40:09Z</time>
      </trkpt>
      <trkpt lat="48.39873" lon="2.69685">
        <ele>72</ele>
        <time>2014-12-02T08:40:16Z</time>
      </trkpt>
      <trkpt lat="48.39866" lon="2.69674">
        <ele>72</ele>
        <time>2014-12-02T08:40:23Z</time>
      </trkpt>
      <trkpt lat="48.39852" lon="2.69656">
        <ele>72</ele>
        <time>2014-12-02T08:40:41Z</time>
      </trkpt>
      <trkpt lat="48.39842" lon="2.69658">
        <ele>72</ele>
        <time>2014-12-02T08:40:48Z</time>
      </trkpt>
      <trkpt lat="48.39822" lon="2.6966">
        <ele>73</ele>
        <time>2014-12-02T08:41:04Z</time>
      </trkpt>
      <trkpt lat="48.39812" lon="2.69659">
        <ele>73</ele>
        <time>2014-12-02T08:41:12Z</time>
      </trkpt>
      <trkpt lat="48.39807" lon="2.69646">
        <ele>72</ele>
        <time>2014-12-02T08:41:23Z</time>
      </trkpt>
      <trkpt lat="48.39798" lon="2.69643">
        <ele>73</ele>
        <time>2014-12-02T08:41:34Z</time>
      </trkpt>
      <trkpt lat="48.39794" lon="2.69641">
        <ele>74</ele>
        <time>2014-12-02T08:41:44Z</time>
      </trkpt>
      <trkpt lat="48.39791" lon="2.69635">
        <ele>74</ele>
        <time>2014-12-02T08:41:48Z</time>
      </trkpt>
      <trkpt lat="48.39786" lon="2.69622">
        <ele>75</ele>
        <time>2014-12-02T08:41:57Z</time>
      </trkpt>
      <trkpt lat="48.39782" lon="2.69612">
        <ele>76</ele>
        <time>2014-12-02T08:42:02Z</time>
      </trkpt>
      <trkpt lat="48.3978" lon="2.69604">
        <ele>76</ele>
        <time>2014-12-02T08:42:06Z</time>
      </trkpt>
      <trkpt lat="48.39781" lon="2.69596">
        <ele>76</ele>
        <time>2014-12-02T08:42:10Z</time>
      </trkpt>
      <trkpt lat="48.3978" lon="2.69589">
        <ele>77</ele>
        <time>2014-12-02T08:42:13Z</time>
      </trkpt>
      <trkpt lat="48.3978" lon="2.6958">
        <ele>76</ele>
        <time>2014-12-02T08:42:18Z</time>
      </trkpt>
      <trkpt lat="48.39777" lon="2.69575">
        <ele>76</ele>
        <time>2014-12-02T08:42:23Z</time>
      </trkpt>
      <trkpt lat="48.39776" lon="2.69568">
        <ele>76</ele>
        <time>2014-12-02T08:42:29Z</time>
      </trkpt>
      <trkpt lat="48.39776" lon="2.69553">
        <ele>75</ele>
        <time>2014-12-02T08:42:39Z</time>
      </trkpt>
      <trkpt lat="48.39775" lon="2.69547">
        <ele>75</ele>
        <time>2014-12-02T08:42:42Z</time>
      </trkpt>
      <trkpt lat="48.39775" lon="2.69539">
        <ele>75</ele>
        <time>2014-12-02T08:42:45Z</time>
      </trkpt>
      <trkpt lat="48.39775" lon="2.69531">
        <ele>75</ele>
        <time>2014-12-02T08:42:49Z</time>
      </trkpt>
      <trkpt lat="48.39772" lon="2.69525">
        <ele>74</ele>
        <time>2014-12-02T08:42:53Z</time>
      </trkpt>
      <trkpt lat="48.39772" lon="2.69517">
        <ele>73</ele>
        <time>2014-12-02T08:42:58Z</time>
      </trkpt>
      <trkpt lat="48.39768" lon="2.69512">
        <ele>73</ele>
        <time>2014-12-02T08:43:02Z</time>
      </trkpt>
      <trkpt lat="48.39761" lon="2.69492">
        <ele>71</ele>
        <time>2014-12-02T08:43:13Z</time>
      </trkpt>
      <trkpt lat="48.39762" lon="2.69485">
        <ele>72</ele>
        <time>2014-12-02T08:43:19Z</time>
      </trkpt>
      <trkpt lat="48.39761" lon="2.69477">
        <ele>71</ele>
        <time>2014-12-02T08:43:23Z</time>
      </trkpt>
      <trkpt lat="48.39756" lon="2.69465">
        <ele>71</ele>
        <time>2014-12-02T08:43:28Z</time>
      </trkpt>
      <trkpt lat="48.39753" lon="2.6946">
        <ele>70</ele>
        <time>2014-12-02T08:43:32Z</time>
      </trkpt>
      <trkpt lat="48.39753" lon="2.69452">
        <ele>68</ele>
        <time>2014-12-02T08:43:36Z</time>
      </trkpt>
      <trkpt lat="48.39752" lon="2.69446">
        <ele>66</ele>
        <time>2014-12-02T08:43:40Z</time>
      </trkpt>
      <trkpt lat="48.39745" lon="2.69437">
        <ele>65</ele>
        <time>2014-12-02T08:43:48Z</time>
      </trkpt>
      <trkpt lat="48.39745" lon="2.69429">
        <ele>65</ele>
        <time>2014-12-02T08:43:53Z</time>
      </trkpt>
      <trkpt lat="48.39745" lon="2.69422">
        <ele>65</ele>
        <time>2014-12-02T08:43:58Z</time>
      </trkpt>
      <trkpt lat="48.39746" lon="2.69408">
        <ele>66</ele>
        <time>2014-12-02T08:44:06Z</time>
      </trkpt>
      <trkpt lat="48.39747" lon="2.69385">
        <ele>67</ele>
        <time>2014-12-02T08:44:17Z</time>
      </trkpt>
      <trkpt lat="48.39754" lon="2.69375">
        <ele>67</ele>
        <time>2014-12-02T08:44:24Z</time>
      </trkpt>
      <trkpt lat="48.39788" lon="2.69354">
        <ele>71</ele>
        <time>2014-12-02T08:44:55Z</time>
      </trkpt>
      <trkpt lat="48.39797" lon="2.69358">
        <ele>73</ele>
        <time>2014-12-02T08:45:05Z</time>
      </trkpt>
      <trkpt lat="48.39822" lon="2.69378">
        <ele>75</ele>
        <time>2014-12-02T08:45:28Z</time>
      </trkpt>
      <trkpt lat="48.39832" lon="2.69383">
        <ele>75</ele>
        <time>2014-12-02T08:45:37Z</time>
      </trkpt>
      <trkpt lat="48.39839" lon="2.6939">
        <ele>75</ele>
        <time>2014-12-02T08:45:47Z</time>
      </trkpt>
      <trkpt lat="48.3987" lon="2.69426">
        <ele>73</ele>
        <time>2014-12-02T08:46:17Z</time>
      </trkpt>
      <trkpt lat="48.39877" lon="2.69435">
        <ele>74</ele>
        <time>2014-12-02T08:46:25Z</time>
      </trkpt>
      <trkpt lat="48.39904" lon="2.69473">
        <ele>75</ele>
        <time>2014-12-02T08:46:55Z</time>
      </trkpt>
      <trkpt lat="48.39895" lon="2.69485">
        <ele>74</ele>
        <time>2014-12-02T08:47:17Z</time>
      </trkpt>
      <trkpt lat="48.39897" lon="2.695">
        <ele>74</ele>
        <time>2014-12-02T08:47:25Z</time>
      </trkpt>
      <trkpt lat="48.39897" lon="2.69543">
        <ele>73</ele>
        <time>2014-12-02T08:47:50Z</time>
      </trkpt>
      <trkpt lat="48.39881" lon="2.69594">
        <ele>74</ele>
        <time>2014-12-02T08:48:25Z</time>
      </trkpt>
      <trkpt lat="48.39873" lon="2.69602">
        <ele>74</ele>
        <time>2014-12-02T08:48:32Z</time>
      </trkpt>
      <trkpt lat="48.39863" lon="2.69603">
        <ele>74</ele>
        <time>2014-12-02T08:48:40Z</time>
      </trkpt>
      <trkpt lat="48.39857" lon="2.69614">
        <ele>74</ele>
        <time>2014-12-02T08:48:52Z</time>
      </trkpt>
      <trkpt lat="48.39863" lon="2.69624">
        <ele>74</ele>
        <time>2014-12-02T08:49:12Z</time>
      </trkpt>
      <trkpt lat="48.39867" lon="2.69653">
        <ele>74</ele>
        <time>2014-12-02T08:49:27Z</time>
      </trkpt>
      <trkpt lat="48.39864" lon="2.69666">
        <ele>73</ele>
        <time>2014-12-02T08:49:36Z</time>
      </trkpt>
      <trkpt lat="48.39866" lon="2.6968">
        <ele>73</ele>
        <time>2014-12-02T08:49:44Z</time>
      </trkpt>
      <trkpt lat="48.39872" lon="2.69692">
        <ele>73</ele>
        <time>2014-12-02T08:49:53Z</time>
      </trkpt>
      <trkpt lat="48.39882" lon="2.69698">
        <ele>74</ele>
        <time>2014-12-02T08:50:02Z</time>
      </trkpt>
      <trkpt lat="48.39916" lon="2.69723">
        <ele>72</ele>
        <time>2014-12-02T08:50:34Z</time>
      </trkpt>
      <trkpt lat="48.39949" lon="2.69754">
        <ele>72</ele>
        <time>2014-12-02T08:51:06Z</time>
      </trkpt>
      <trkpt lat="48.39965" lon="2.69772">
        <ele>71</ele>
        <time>2014-12-02T08:51:27Z</time>
      </trkpt>
      <trkpt lat="48.40006" lon="2.69811">
        <ele>71</ele>
        <time>2014-12-02T08:52:03Z</time>
      </trkpt>
      <trkpt lat="48.40037" lon="2.69842">
        <ele>70</ele>
        <time>2014-12-02T08:52:36Z</time>
      </trkpt>
      <trkpt lat="48.40043" lon="2.69852">
        <ele>69</ele>
        <time>2014-12-02T08:52:44Z</time>
      </trkpt>
      <trkpt lat="48.40051" lon="2.69858">
        <ele>70</ele>
        <time>2014-12-02T08:52:54Z</time>
      </trkpt>
      <trkpt lat="48.4008" lon="2.69892">
        <ele>68</ele>
        <time>2014-12-02T08:53:28Z</time>
      </trkpt>
      <trkpt lat="48.40114" lon="2.69921">
        <ele>69</ele>
        <time>2014-12-02T08:54:00Z</time>
      </trkpt>
      <trkpt lat="48.40127" lon="2.69943">
        <ele>70</ele>
        <time>2014-12-02T08:54:13Z</time>
      </trkpt>
      <trkpt lat="48.4013" lon="2.69959">
        <ele>72</ele>
        <time>2014-12-02T08:54:22Z</time>
      </trkpt>
      <trkpt lat="48.40133" lon="2.69965">
        <ele>72</ele>
        <time>2014-12-02T08:54:26Z</time>
      </trkpt>
      <trkpt lat="48.40134" lon="2.69972">
        <ele>72</ele>
        <time>2014-12-02T08:54:30Z</time>
      </trkpt>
      <trkpt lat="48.40138" lon="2.69976">
        <ele>71</ele>
        <time>2014-12-02T08:54:34Z</time>
      </trkpt>
      <trkpt lat="48.40147" lon="2.69976">
        <ele>70</ele>
        <time>2014-12-02T08:54:42Z</time>
      </trkpt>
      <trkpt lat="48.40165" lon="2.69966">
        <ele>70</ele>
        <time>2014-12-02T08:54:54Z</time>
      </trkpt>
      <trkpt lat="48.40177" lon="2.69962">
        <ele>71</ele>
        <time>2014-12-02T08:55:06Z</time>
      </trkpt>
      <trkpt lat="48.40176" lon="2.69945">
        <ele>71</ele>
        <time>2014-12-02T08:55:24Z</time>
      </trkpt>
      <trkpt lat="48.40183" lon="2.69936">
        <ele>71</ele>
        <time>2014-12-02T08:55:33Z</time>
      </trkpt>
      <trkpt lat="48.40187" lon="2.69935">
        <ele>71</ele>
        <time>2014-12-02T08:55:36Z</time>
      </trkpt>
      <trkpt lat="48.40215" lon="2.69906">
        <ele>73</ele>
        <time>2014-12-02T08:55:57Z</time>
      </trkpt>
      <trkpt lat="48.40233" lon="2.69907">
        <ele>73</ele>
        <time>2014-12-02T08:56:07Z</time>
      </trkpt>
      <trkpt lat="48.40236" lon="2.69912">
        <ele>74</ele>
        <time>2014-12-02T08:56:12Z</time>
      </trkpt>
      <trkpt lat="48.40247" lon="2.69911">
        <ele>74</ele>
        <time>2014-12-02T08:56:27Z</time>
      </trkpt>
      <trkpt lat="48.40258" lon="2.69905">
        <ele>74</ele>
        <time>2014-12-02T08:56:39Z</time>
      </trkpt>
      <trkpt lat="48.40261" lon="2.6991">
        <ele>74</ele>
        <time>2014-12-02T08:56:48Z</time>
      </trkpt>
      <trkpt lat="48.4027" lon="2.69909">
        <ele>74</ele>
        <time>2014-12-02T08:56:55Z</time>
      </trkpt>
      <trkpt lat="48.40294" lon="2.69897">
        <ele>74</ele>
        <time>2014-12-02T08:57:21Z</time>
      </trkpt>
      <trkpt lat="48.40299" lon="2.699">
        <ele>74</ele>
        <time>2014-12-02T08:57:25Z</time>
      </trkpt>
      <trkpt lat="48.40303" lon="2.69906">
        <ele>74</ele>
        <time>2014-12-02T08:57:30Z</time>
      </trkpt>
      <trkpt lat="48.40308" lon="2.6991">
        <ele>74</ele>
        <time>2014-12-02T08:57:34Z</time>
      </trkpt>
      <trkpt lat="48.40305" lon="2.69918">
        <ele>74</ele>
        <time>2014-12-02T08:57:39Z</time>
      </trkpt>
      <trkpt lat="48.40302" lon="2.69924">
        <ele>73</ele>
        <time>2014-12-02T08:57:42Z</time>
      </trkpt>
      <trkpt lat="48.40297" lon="2.69933">
        <ele>73</ele>
        <time>2014-12-02T08:57:51Z</time>
      </trkpt>
      <trkpt lat="48.40296" lon="2.6994">
        <ele>73</ele>
        <time>2014-12-02T08:57:59Z</time>
      </trkpt>
      <trkpt lat="48.40287" lon="2.69948">
        <ele>74</ele>
        <time>2014-12-02T08:58:12Z</time>
      </trkpt>
      <trkpt lat="48.40267" lon="2.69962">
        <ele>74</ele>
        <time>2014-12-02T08:58:25Z</time>
      </trkpt>
      <trkpt lat="48.40264" lon="2.69959">
        <ele>73</ele>
        <time>2014-12-02T08:58:31Z</time>
      </trkpt>
      <trkpt lat="48.40268" lon="2.69951">
        <ele>73</ele>
        <time>2014-12-02T08:58:33Z</time>
      </trkpt>
      <trkpt lat="48.40273" lon="2.69966">
        <ele>73</ele>
        <time>2014-12-02T08:58:41Z</time>
      </trkpt>
      <trkpt lat="48.40271" lon="2.69982">
        <ele>73</ele>
        <time>2014-12-02T08:58:45Z</time>
      </trkpt>
      <trkpt lat="48.40268" lon="2.69995">
        <ele>73</ele>
        <time>2014-12-02T08:58:50Z</time>
      </trkpt>
      <trkpt lat="48.4027" lon="2.70005">
        <ele>73</ele>
        <time>2014-12-02T08:58:53Z</time>
      </trkpt>
      <trkpt lat="48.4027" lon="2.70017">
        <ele>72</ele>
        <time>2014-12-02T08:59:01Z</time>
      </trkpt>
      <trkpt lat="48.4027" lon="2.70022">
        <ele>72</ele>
        <time>2014-12-02T08:59:10Z</time>
      </trkpt>
      <trkpt lat="48.40274" lon="2.70021">
        <ele>72</ele>
        <time>2014-12-02T08:59:16Z</time>
      </trkpt>
      <trkpt lat="48.40273" lon="2.70031">
        <ele>72</ele>
        <time>2014-12-02T08:59:32Z</time>
      </trkpt>
      <trkpt lat="48.40276" lon="2.70036">
        <ele>71</ele>
        <time>2014-12-02T08:59:40Z</time>
      </trkpt>
      <trkpt lat="48.40279" lon="2.70042">
        <ele>71</ele>
        <time>2014-12-02T08:59:44Z</time>
      </trkpt>
      <trkpt lat="48.40285" lon="2.70062">
        <ele>72</ele>
        <time>2014-12-02T08:59:53Z</time>
      </trkpt>
      <trkpt lat="48.40298" lon="2.70066">
        <ele>71</ele>
        <time>2014-12-02T09:00:05Z</time>
      </trkpt>
      <trkpt lat="48.40308" lon="2.70071">
        <ele>71</ele>
        <time>2014-12-02T09:00:12Z</time>
      </trkpt>
      <trkpt lat="48.40327" lon="2.70066">
        <ele>72</ele>
        <time>2014-12-02T09:00:31Z</time>
      </trkpt>
      <trkpt lat="48.40332" lon="2.70068">
        <ele>73</ele>
        <time>2014-12-02T09:00:44Z</time>
      </trkpt>
      <trkpt lat="48.40333" lon="2.70072">
        <ele>73</ele>
        <time>2014-12-02T09:00:51Z</time>
      </trkpt>
      <trkpt lat="48.40341" lon="2.70093">
        <ele>72</ele>
        <time>2014-12-02T09:01:07Z</time>
      </trkpt>
      <trkpt lat="48.40344" lon="2.70095">
        <ele>72</ele>
        <time>2014-12-02T09:01:08Z</time>
      </trkpt>
      <trkpt lat="48.40347" lon="2.701">
        <ele>72</ele>
        <time>2014-12-02T09:01:12Z</time>
      </trkpt>
      <trkpt lat="48.40349" lon="2.70111">
        <ele>73</ele>
        <time>2014-12-02T09:01:19Z</time>
      </trkpt>
      <trkpt lat="48.40344" lon="2.70114">
        <ele>73</ele>
        <time>2014-12-02T09:01:23Z</time>
      </trkpt>
      <trkpt lat="48.40334" lon="2.70115">
        <ele>72</ele>
        <time>2014-12-02T09:01:30Z</time>
      </trkpt>
      <trkpt lat="48.40317" lon="2.7013">
        <ele>72</ele>
        <time>2014-12-02T09:01:44Z</time>
      </trkpt>
      <trkpt lat="48.4029" lon="2.70133">
        <ele>72</ele>
        <time>2014-12-02T09:02:09Z</time>
      </trkpt>
      <trkpt lat="48.40262" lon="2.70144">
        <ele>74</ele>
        <time>2014-12-02T09:02:31Z</time>
      </trkpt>
      <trkpt lat="48.40253" lon="2.70148">
        <ele>74</ele>
        <time>2014-12-02T09:02:44Z</time>
      </trkpt>
      <trkpt lat="48.40237" lon="2.70164">
        <ele>74</ele>
        <time>2014-12-02T09:03:06Z</time>
      </trkpt>
      <trkpt lat="48.40226" lon="2.70167">
        <ele>77</ele>
        <time>2014-12-02T09:03:53Z</time>
      </trkpt>
      <trkpt lat="48.40216" lon="2.70167">
        <ele>77</ele>
        <time>2014-12-02T09:04:03Z</time>
      </trkpt>
      <trkpt lat="48.40207" lon="2.7017">
        <ele>75</ele>
        <time>2014-12-02T09:04:17Z</time>
      </trkpt>
      <trkpt lat="48.40202" lon="2.7018">
        <ele>73</ele>
        <time>2014-12-02T09:04:24Z</time>
      </trkpt>
      <trkpt lat="48.40202" lon="2.7022">
        <ele>72</ele>
        <time>2014-12-02T09:04:46Z</time>
      </trkpt>
      <trkpt lat="48.40204" lon="2.70227">
        <ele>71</ele>
        <time>2014-12-02T09:04:51Z</time>
      </trkpt>
      <trkpt lat="48.40207" lon="2.70234">
        <ele>71</ele>
        <time>2014-12-02T09:04:56Z</time>
      </trkpt>
      <trkpt lat="48.40207" lon="2.70241">
        <ele>71</ele>
        <time>2014-12-02T09:05:02Z</time>
      </trkpt>
      <trkpt lat="48.40206" lon="2.7026">
        <ele>72</ele>
        <time>2014-12-02T09:05:12Z</time>
      </trkpt>
      <trkpt lat="48.40189" lon="2.70289">
        <ele>76</ele>
        <time>2014-12-02T09:05:36Z</time>
      </trkpt>
      <trkpt lat="48.40181" lon="2.70298">
        <ele>76</ele>
        <time>2014-12-02T09:05:44Z</time>
      </trkpt>
      <trkpt lat="48.40179" lon="2.70304">
        <ele>77</ele>
        <time>2014-12-02T09:05:48Z</time>
      </trkpt>
      <trkpt lat="48.40173" lon="2.70306">
        <ele>77</ele>
        <time>2014-12-02T09:05:56Z</time>
      </trkpt>
      <trkpt lat="48.40169" lon="2.70308">
        <ele>77</ele>
        <time>2014-12-02T09:06:00Z</time>
      </trkpt>
      <trkpt lat="48.40165" lon="2.70315">
        <ele>76</ele>
        <time>2014-12-02T09:06:05Z</time>
      </trkpt>
      <trkpt lat="48.40165" lon="2.70324">
        <ele>76</ele>
        <time>2014-12-02T09:06:08Z</time>
      </trkpt>
      <trkpt lat="48.40167" lon="2.70332">
        <ele>76</ele>
        <time>2014-12-02T09:06:13Z</time>
      </trkpt>
      <trkpt lat="48.40172" lon="2.70344">
        <ele>78</ele>
        <time>2014-12-02T09:06:23Z</time>
      </trkpt>
      <trkpt lat="48.40173" lon="2.70351">
        <ele>78</ele>
        <time>2014-12-02T09:06:26Z</time>
      </trkpt>
      <trkpt lat="48.40173" lon="2.70359">
        <ele>78</ele>
        <time>2014-12-02T09:06:31Z</time>
      </trkpt>
      <trkpt lat="48.4017" lon="2.70366">
        <ele>78</ele>
        <time>2014-12-02T09:06:34Z</time>
      </trkpt>
      <trkpt lat="48.40167" lon="2.70373">
        <ele>78</ele>
        <time>2014-12-02T09:06:37Z</time>
      </trkpt>
      <trkpt lat="48.40166" lon="2.7038">
        <ele>77</ele>
        <time>2014-12-02T09:06:42Z</time>
      </trkpt>
      <trkpt lat="48.40157" lon="2.70388">
        <ele>76</ele>
        <time>2014-12-02T09:06:51Z</time>
      </trkpt>
      <trkpt lat="48.40155" lon="2.70394">
        <ele>76</ele>
        <time>2014-12-02T09:06:55Z</time>
      </trkpt>
      <trkpt lat="48.40158" lon="2.70416">
        <ele>79</ele>
        <time>2014-12-02T09:07:09Z</time>
      </trkpt>
      <trkpt lat="48.40159" lon="2.70423">
        <ele>79</ele>
        <time>2014-12-02T09:07:12Z</time>
      </trkpt>
      <trkpt lat="48.40164" lon="2.70429">
        <ele>80</ele>
        <time>2014-12-02T09:07:16Z</time>
      </trkpt>
      <trkpt lat="48.4017" lon="2.70439">
        <ele>79</ele>
        <time>2014-12-02T09:07:26Z</time>
      </trkpt>
      <trkpt lat="48.40174" lon="2.70443">
        <ele>79</ele>
        <time>2014-12-02T09:07:30Z</time>
      </trkpt>
      <trkpt lat="48.40176" lon="2.70451">
        <ele>79</ele>
        <time>2014-12-02T09:07:35Z</time>
      </trkpt>
      <trkpt lat="48.40178" lon="2.70457">
        <ele>79</ele>
        <time>2014-12-02T09:07:38Z</time>
      </trkpt>
      <trkpt lat="48.40183" lon="2.70461">
        <ele>80</ele>
        <time>2014-12-02T09:07:43Z</time>
      </trkpt>
      <trkpt lat="48.40185" lon="2.70468">
        <ele>79</ele>
        <time>2014-12-02T09:07:48Z</time>
      </trkpt>
      <trkpt lat="48.40185" lon="2.7047">
        <ele>75</ele>
        <time>2014-12-02T09:08:12Z</time>
      </trkpt>
      <trkpt lat="48.40187" lon="2.70476">
        <ele>73</ele>
        <time>2014-12-02T09:08:19Z</time>
      </trkpt>
      <trkpt lat="48.40197" lon="2.70482">
        <ele>70</ele>
        <time>2014-12-02T09:08:29Z</time>
      </trkpt>
      <trkpt lat="48.40202" lon="2.70483">
        <ele>69</ele>
        <time>2014-12-02T09:08:33Z</time>
      </trkpt>
      <trkpt lat="48.40212" lon="2.70481">
        <ele>69</ele>
        <time>2014-12-02T09:08:42Z</time>
      </trkpt>
      <trkpt lat="48.40217" lon="2.70486">
        <ele>70</ele>
        <time>2014-12-02T09:08:46Z</time>
      </trkpt>
      <trkpt lat="48.4022" lon="2.70491">
        <ele>70</ele>
        <time>2014-12-02T09:08:50Z</time>
      </trkpt>
      <trkpt lat="48.40225" lon="2.70493">
        <ele>70</ele>
        <time>2014-12-02T09:08:55Z</time>
      </trkpt>
      <trkpt lat="48.40226" lon="2.70501">
        <ele>70</ele>
        <time>2014-12-02T09:08:59Z</time>
      </trkpt>
      <trkpt lat="48.40229" lon="2.70515">
        <ele>69</ele>
        <time>2014-12-02T09:09:06Z</time>
      </trkpt>
      <trkpt lat="48.40234" lon="2.70528">
        <ele>69</ele>
        <time>2014-12-02T09:09:15Z</time>
      </trkpt>
      <trkpt lat="48.40239" lon="2.70541">
        <ele>68</ele>
        <time>2014-12-02T09:09:25Z</time>
      </trkpt>
      <trkpt lat="48.40241" lon="2.70548">
        <ele>68</ele>
        <time>2014-12-02T09:09:31Z</time>
      </trkpt>
      <trkpt lat="48.40245" lon="2.70552">
        <ele>69</ele>
        <time>2014-12-02T09:09:35Z</time>
      </trkpt>
      <trkpt lat="48.40248" lon="2.70557">
        <ele>69</ele>
        <time>2014-12-02T09:09:39Z</time>
      </trkpt>
      <trkpt lat="48.40251" lon="2.70572">
        <ele>66</ele>
        <time>2014-12-02T09:09:47Z</time>
      </trkpt>
      <trkpt lat="48.40248" lon="2.70579">
        <ele>65</ele>
        <time>2014-12-02T09:09:51Z</time>
      </trkpt>
      <trkpt lat="48.4023" lon="2.70603">
        <ele>62</ele>
        <time>2014-12-02T09:10:09Z</time>
      </trkpt>
      <trkpt lat="48.40227" lon="2.70609">
        <ele>60</ele>
        <time>2014-12-02T09:10:14Z</time>
      </trkpt>
      <trkpt lat="48.40219" lon="2.70618">
        <ele>59</ele>
        <time>2014-12-02T09:10:24Z</time>
      </trkpt>
      <trkpt lat="48.4021" lon="2.70626">
        <ele>60</ele>
        <time>2014-12-02T09:10:33Z</time>
      </trkpt>
      <trkpt lat="48.40209" lon="2.70634">
        <ele>60</ele>
        <time>2014-12-02T09:10:38Z</time>
      </trkpt>
      <trkpt lat="48.40204" lon="2.70633">
        <ele>60</ele>
        <time>2014-12-02T09:10:44Z</time>
      </trkpt>
      <trkpt lat="48.40202" lon="2.70642">
        <ele>62</ele>
        <time>2014-12-02T09:10:55Z</time>
      </trkpt>
      <trkpt lat="48.40202" lon="2.70649">
        <ele>63</ele>
        <time>2014-12-02T09:11:04Z</time>
      </trkpt>
      <trkpt lat="48.40205" lon="2.70655">
        <ele>62</ele>
        <time>2014-12-02T09:11:11Z</time>
      </trkpt>
      <trkpt lat="48.40205" lon="2.70662">
        <ele>62</ele>
        <time>2014-12-02T09:11:15Z</time>
      </trkpt>
      <trkpt lat="48.40203" lon="2.70669">
        <ele>61</ele>
        <time>2014-12-02T09:11:18Z</time>
      </trkpt>
      <trkpt lat="48.40203" lon="2.70675">
        <ele>61</ele>
        <time>2014-12-02T09:11:20Z</time>
      </trkpt>
      <trkpt lat="48.40206" lon="2.70681">
        <ele>60</ele>
        <time>2014-12-02T09:11:25Z</time>
      </trkpt>
      <trkpt lat="48.40205" lon="2.70687">
        <ele>61</ele>
        <time>2014-12-02T09:11:34Z</time>
      </trkpt>
      <trkpt lat="48.40208" lon="2.70692">
        <ele>62</ele>
        <time>2014-12-02T09:11:39Z</time>
      </trkpt>
      <trkpt lat="48.40208" lon="2.707">
        <ele>63</ele>
        <time>2014-12-02T09:11:46Z</time>
      </trkpt>
      <trkpt lat="48.40211" lon="2.70706">
        <ele>63</ele>
        <time>2014-12-02T09:11:52Z</time>
      </trkpt>
      <trkpt lat="48.40216" lon="2.7072">
        <ele>64</ele>
        <time>2014-12-02T09:12:00Z</time>
      </trkpt>
      <trkpt lat="48.40225" lon="2.70728">
        <ele>63</ele>
        <time>2014-12-02T09:12:10Z</time>
      </trkpt>
      <trkpt lat="48.40228" lon="2.70735">
        <ele>64</ele>
        <time>2014-12-02T09:12:15Z</time>
      </trkpt>
      <trkpt lat="48.4023" lon="2.70741">
        <ele>63</ele>
        <time>2014-12-02T09:12:22Z</time>
      </trkpt>
      <trkpt lat="48.4023" lon="2.70749">
        <ele>63</ele>
        <time>2014-12-02T09:12:27Z</time>
      </trkpt>
      <trkpt lat="48.40228" lon="2.70756">
        <ele>62</ele>
        <time>2014-12-02T09:12:32Z</time>
      </trkpt>
      <trkpt lat="48.40231" lon="2.70762">
        <ele>62</ele>
        <time>2014-12-02T09:12:36Z</time>
      </trkpt>
      <trkpt lat="48.40236" lon="2.70772">
        <ele>61</ele>
        <time>2014-12-02T09:12:40Z</time>
      </trkpt>
      <trkpt lat="48.40241" lon="2.70786">
        <ele>62</ele>
        <time>2014-12-02T09:12:50Z</time>
      </trkpt>
      <trkpt lat="48.40247" lon="2.70806">
        <ele>64</ele>
        <time>2014-12-02T09:13:01Z</time>
      </trkpt>
      <trkpt lat="48.40249" lon="2.70814">
        <ele>64</ele>
        <time>2014-12-02T09:13:05Z</time>
      </trkpt>
      <trkpt lat="48.4025" lon="2.7082">
        <ele>64</ele>
        <time>2014-12-02T09:13:09Z</time>
      </trkpt>
      <trkpt lat="48.40253" lon="2.70827">
        <ele>65</ele>
        <time>2014-12-02T09:13:14Z</time>
      </trkpt>
      <trkpt lat="48.40256" lon="2.70833">
        <ele>65</ele>
        <time>2014-12-02T09:13:18Z</time>
      </trkpt>
      <trkpt lat="48.40259" lon="2.70838">
        <ele>65</ele>
        <time>2014-12-02T09:13:23Z</time>
      </trkpt>
      <trkpt lat="48.40265" lon="2.70851">
        <ele>63</ele>
        <time>2014-12-02T09:13:33Z</time>
      </trkpt>
      <trkpt lat="48.40271" lon="2.70874">
        <ele>59</ele>
        <time>2014-12-02T09:13:46Z</time>
      </trkpt>
      <trkpt lat="48.40277" lon="2.70887">
        <ele>60</ele>
        <time>2014-12-02T09:13:53Z</time>
      </trkpt>
      <trkpt lat="48.40284" lon="2.70901">
        <ele>61</ele>
        <time>2014-12-02T09:14:03Z</time>
      </trkpt>
      <trkpt lat="48.40288" lon="2.70918">
        <ele>63</ele>
        <time>2014-12-02T09:14:14Z</time>
      </trkpt>
      <trkpt lat="48.4029" lon="2.70925">
        <ele>62</ele>
        <time>2014-12-02T09:14:19Z</time>
      </trkpt>
      <trkpt lat="48.40292" lon="2.70931">
        <ele>62</ele>
        <time>2014-12-02T09:14:25Z</time>
      </trkpt>
      <trkpt lat="48.40298" lon="2.7094">
        <ele>62</ele>
        <time>2014-12-02T09:14:31Z</time>
      </trkpt>
      <trkpt lat="48.40299" lon="2.70947">
        <ele>62</ele>
        <time>2014-12-02T09:14:34Z</time>
      </trkpt>
      <trkpt lat="48.40305" lon="2.70968">
        <ele>61</ele>
        <time>2014-12-02T09:14:49Z</time>
      </trkpt>
      <trkpt lat="48.40306" lon="2.70975">
        <ele>61</ele>
        <time>2014-12-02T09:14:53Z</time>
      </trkpt>
      <trkpt lat="48.40312" lon="2.71011">
        <ele>66</ele>
        <time>2014-12-02T09:15:16Z</time>
      </trkpt>
      <trkpt lat="48.40322" lon="2.71031">
        <ele>62</ele>
        <time>2014-12-02T09:15:27Z</time>
      </trkpt>
      <trkpt lat="48.40328" lon="2.7104">
        <ele>62</ele>
        <time>2014-12-02T09:15:33Z</time>
      </trkpt>
      <trkpt lat="48.40334" lon="2.71053">
        <ele>63</ele>
        <time>2014-12-02T09:15:45Z</time>
      </trkpt>
      <trkpt lat="48.40336" lon="2.71059">
        <ele>64</ele>
        <time>2014-12-02T09:15:51Z</time>
      </trkpt>
      <trkpt lat="48.40335" lon="2.71066">
        <ele>66</ele>
        <time>2014-12-02T09:15:59Z</time>
      </trkpt>
      <trkpt lat="48.40338" lon="2.71069">
        <ele>65</ele>
        <time>2014-12-02T09:16:12Z</time>
      </trkpt>
      <trkpt lat="48.40339" lon="2.71074">
        <ele>64</ele>
        <time>2014-12-02T09:16:41Z</time>
      </trkpt>
      <trkpt lat="48.40343" lon="2.71076">
        <ele>65</ele>
        <time>2014-12-02T09:16:50Z</time>
      </trkpt>
      <trkpt lat="48.40345" lon="2.71085">
        <ele>65</ele>
        <time>2014-12-02T09:18:09Z</time>
      </trkpt>
      <trkpt lat="48.40348" lon="2.71093">
        <ele>67</ele>
        <time>2014-12-02T09:18:15Z</time>
      </trkpt>
      <trkpt lat="48.40358" lon="2.71094">
        <ele>66</ele>
        <time>2014-12-02T09:18:25Z</time>
      </trkpt>
      <trkpt lat="48.40367" lon="2.711">
        <ele>63</ele>
        <time>2014-12-02T09:18:32Z</time>
      </trkpt>
      <trkpt lat="48.40373" lon="2.71111">
        <ele>63</ele>
        <time>2014-12-02T09:18:41Z</time>
      </trkpt>
      <trkpt lat="48.40373" lon="2.71128">
        <ele>64</ele>
        <time>2014-12-02T09:18:54Z</time>
      </trkpt>
      <trkpt lat="48.40375" lon="2.71142">
        <ele>64</ele>
        <time>2014-12-02T09:19:03Z</time>
      </trkpt>
      <trkpt lat="48.40373" lon="2.71171">
        <ele>66</ele>
        <time>2014-12-02T09:19:20Z</time>
      </trkpt>
      <trkpt lat="48.40377" lon="2.71184">
        <ele>67</ele>
        <time>2014-12-02T09:19:28Z</time>
      </trkpt>
      <trkpt lat="48.40381" lon="2.71196">
        <ele>68</ele>
        <time>2014-12-02T09:19:35Z</time>
      </trkpt>
      <trkpt lat="48.40384" lon="2.71209">
        <ele>67</ele>
        <time>2014-12-02T09:19:42Z</time>
      </trkpt>
      <trkpt lat="48.40393" lon="2.71235">
        <ele>65</ele>
        <time>2014-12-02T09:19:58Z</time>
      </trkpt>
      <trkpt lat="48.40398" lon="2.71249">
        <ele>64</ele>
        <time>2014-12-02T09:20:07Z</time>
      </trkpt>
      <trkpt lat="48.40413" lon="2.71283">
        <ele>69</ele>
        <time>2014-12-02T09:20:32Z</time>
      </trkpt>
      <trkpt lat="48.4042" lon="2.7131">
        <ele>67</ele>
        <time>2014-12-02T09:20:50Z</time>
      </trkpt>
      <trkpt lat="48.40425" lon="2.71323">
        <ele>68</ele>
        <time>2014-12-02T09:20:58Z</time>
      </trkpt>
      <trkpt lat="48.40428" lon="2.71337">
        <ele>67</ele>
        <time>2014-12-02T09:21:07Z</time>
      </trkpt>
      <trkpt lat="48.40432" lon="2.7135">
        <ele>68</ele>
        <time>2014-12-02T09:21:15Z</time>
      </trkpt>
      <trkpt lat="48.40442" lon="2.71374">
        <ele>72</ele>
        <time>2014-12-02T09:21:31Z</time>
      </trkpt>
      <trkpt lat="48.40446" lon="2.71387">
        <ele>72</ele>
        <time>2014-12-02T09:21:39Z</time>
      </trkpt>
      <trkpt lat="48.40454" lon="2.71412">
        <ele>69</ele>
        <time>2014-12-02T09:21:57Z</time>
      </trkpt>
      <trkpt lat="48.40461" lon="2.71438">
        <ele>69</ele>
        <time>2014-12-02T09:22:13Z</time>
      </trkpt>
      <trkpt lat="48.4047" lon="2.71464">
        <ele>70</ele>
        <time>2014-12-02T09:22:31Z</time>
      </trkpt>
      <trkpt lat="48.4047" lon="2.71471">
        <ele>69</ele>
        <time>2014-12-02T09:22:36Z</time>
      </trkpt>
      <trkpt lat="48.40469" lon="2.71472">
        <ele>69</ele>
        <time>2014-12-02T09:23:01Z</time>
      </trkpt>
      <trkpt lat="48.40474" lon="2.71482">
        <ele>68</ele>
        <time>2014-12-02T09:23:32Z</time>
      </trkpt>
      <trkpt lat="48.4048" lon="2.71493">
        <ele>66</ele>
        <time>2014-12-02T09:23:43Z</time>
      </trkpt>
      <trkpt lat="48.40482" lon="2.71506">
        <ele>66</ele>
        <time>2014-12-02T09:23:50Z</time>
      </trkpt>
      <trkpt lat="48.40486" lon="2.71519">
        <ele>65</ele>
        <time>2014-12-02T09:23:57Z</time>
      </trkpt>
      <trkpt lat="48.40499" lon="2.71539">
        <ele>65</ele>
        <time>2014-12-02T09:24:11Z</time>
      </trkpt>
      <trkpt lat="48.40507" lon="2.7156">
        <ele>65</ele>
        <time>2014-12-02T09:24:19Z</time>
      </trkpt>
      <trkpt lat="48.40511" lon="2.71571">
        <ele>65</ele>
        <time>2014-12-02T09:24:24Z</time>
      </trkpt>
      <trkpt lat="48.40519" lon="2.71604">
        <ele>67</ele>
        <time>2014-12-02T09:24:40Z</time>
      </trkpt>
      <trkpt lat="48.40524" lon="2.71616">
        <ele>67</ele>
        <time>2014-12-02T09:24:46Z</time>
      </trkpt>
      <trkpt lat="48.40536" lon="2.71656">
        <ele>70</ele>
        <time>2014-12-02T09:25:06Z</time>
      </trkpt>
      <trkpt lat="48.40539" lon="2.7167">
        <ele>70</ele>
        <time>2014-12-02T09:25:14Z</time>
      </trkpt>
      <trkpt lat="48.40548" lon="2.71696">
        <ele>71</ele>
        <time>2014-12-02T09:25:26Z</time>
      </trkpt>
      <trkpt lat="48.40572" lon="2.71756">
        <ele>72</ele>
        <time>2014-12-02T09:25:58Z</time>
      </trkpt>
      <trkpt lat="48.40592" lon="2.71822">
        <ele>70</ele>
        <time>2014-12-02T09:26:30Z</time>
      </trkpt>
      <trkpt lat="48.4061" lon="2.71871">
        <ele>73</ele>
        <time>2014-12-02T09:26:57Z</time>
      </trkpt>
      <trkpt lat="48.40618" lon="2.71897">
        <ele>72</ele>
        <time>2014-12-02T09:27:11Z</time>
      </trkpt>
      <trkpt lat="48.40637" lon="2.71946">
        <ele>66</ele>
        <time>2014-12-02T09:27:43Z</time>
      </trkpt>
      <trkpt lat="48.40647" lon="2.71971">
        <ele>67</ele>
        <time>2014-12-02T09:27:59Z</time>
      </trkpt>
      <trkpt lat="48.4066" lon="2.7201">
        <ele>71</ele>
        <time>2014-12-02T09:28:26Z</time>
      </trkpt>
      <trkpt lat="48.40672" lon="2.72051">
        <ele>70</ele>
        <time>2014-12-02T09:28:52Z</time>
      </trkpt>
      <trkpt lat="48.40681" lon="2.72047">
        <ele>70</ele>
        <time>2014-12-02T09:29:03Z</time>
      </trkpt>
      <trkpt lat="48.40686" lon="2.72043">
        <ele>70</ele>
        <time>2014-12-02T09:29:07Z</time>
      </trkpt>
      <trkpt lat="48.40705" lon="2.72036">
        <ele>66</ele>
        <time>2014-12-02T09:29:26Z</time>
      </trkpt>
      <trkpt lat="48.4071" lon="2.72035">
        <ele>62</ele>
        <time>2014-12-02T09:29:48Z</time>
      </trkpt>
      <trkpt lat="48.40707" lon="2.72035">
        <ele>62</ele>
        <time>2014-12-02T09:30:16Z</time>
      </trkpt>
      <trkpt lat="48.40707" lon="2.72037">
        <ele>63</ele>
        <time>2014-12-02T09:30:37Z</time>
      </trkpt>
      <trkpt lat="48.40703" lon="2.72037">
        <ele>63</ele>
        <time>2014-12-02T09:30:49Z</time>
      </trkpt>
      <trkpt lat="48.40702" lon="2.72034">
        <ele>65</ele>
        <time>2014-12-02T09:31:44Z</time>
      </trkpt>
      <trkpt lat="48.40705" lon="2.72032">
        <ele>65</ele>
        <time>2014-12-02T09:32:09Z</time>
      </trkpt>
      <trkpt lat="48.40702" lon="2.72036">
        <ele>64</ele>
        <time>2014-12-02T09:33:08Z</time>
      </trkpt>
      <trkpt lat="48.40703" lon="2.72035">
        <ele>63</ele>
        <time>2014-12-02T09:33:44Z</time>
      </trkpt>
      <trkpt lat="48.40708" lon="2.72036">
        <ele>62</ele>
        <time>2014-12-02T09:34:08Z</time>
      </trkpt>
      <trkpt lat="48.40708" lon="2.72032">
        <ele>62</ele>
        <time>2014-12-02T09:34:59Z</time>
      </trkpt>
      <trkpt lat="48.40714" lon="2.72035">
        <ele>62</ele>
        <time>2014-12-02T09:35:09Z</time>
      </trkpt>
      <trkpt lat="48.40719" lon="2.72029">
        <ele>61</ele>
        <time>2014-12-02T09:35:22Z</time>
      </trkpt>
      <trkpt lat="48.40723" lon="2.72025">
        <ele>61</ele>
        <time>2014-12-02T09:35:28Z</time>
      </trkpt>
      <trkpt lat="48.40733" lon="2.72022">
        <ele>64</ele>
        <time>2014-12-02T09:35:39Z</time>
      </trkpt>
      <trkpt lat="48.40737" lon="2.72017">
        <ele>65</ele>
        <time>2014-12-02T09:35:45Z</time>
      </trkpt>
      <trkpt lat="48.4074" lon="2.72011">
        <ele>65</ele>
        <time>2014-12-02T09:35:50Z</time>
      </trkpt>
      <trkpt lat="48.40745" lon="2.72007">
        <ele>65</ele>
        <time>2014-12-02T09:35:55Z</time>
      </trkpt>
      <trkpt lat="48.40748" lon="2.72003">
        <ele>65</ele>
        <time>2014-12-02T09:36:00Z</time>
      </trkpt>
      <trkpt lat="48.40778" lon="2.71976">
        <ele>61</ele>
        <time>2014-12-02T09:36:32Z</time>
      </trkpt>
      <trkpt lat="48.40781" lon="2.71972">
        <ele>61</ele>
        <time>2014-12-02T09:36:37Z</time>
      </trkpt>
      <trkpt lat="48.40786" lon="2.71969">
        <ele>61</ele>
        <time>2014-12-02T09:36:41Z</time>
      </trkpt>
      <trkpt lat="48.40791" lon="2.71968">
        <ele>61</ele>
        <time>2014-12-02T09:36:45Z</time>
      </trkpt>
      <trkpt lat="48.40803" lon="2.71957">
        <ele>60</ele>
        <time>2014-12-02T09:36:57Z</time>
      </trkpt>
      <trkpt lat="48.40808" lon="2.71956">
        <ele>61</ele>
        <time>2014-12-02T09:37:01Z</time>
      </trkpt>
      <trkpt lat="48.40813" lon="2.71952">
        <ele>61</ele>
        <time>2014-12-02T09:37:07Z</time>
      </trkpt>
      <trkpt lat="48.40818" lon="2.71951">
        <ele>60</ele>
        <time>2014-12-02T09:37:12Z</time>
      </trkpt>
      <trkpt lat="48.40822" lon="2.71946">
        <ele>60</ele>
        <time>2014-12-02T09:37:17Z</time>
      </trkpt>
      <trkpt lat="48.40837" lon="2.71943">
        <ele>61</ele>
        <time>2014-12-02T09:37:31Z</time>
      </trkpt>
      <trkpt lat="48.40842" lon="2.71945">
        <ele>61</ele>
        <time>2014-12-02T09:37:35Z</time>
      </trkpt>
      <trkpt lat="48.40844" lon="2.71953">
        <ele>61</ele>
        <time>2014-12-02T09:37:43Z</time>
      </trkpt>
      <trkpt lat="48.40847" lon="2.7196">
        <ele>60</ele>
        <time>2014-12-02T09:37:48Z</time>
      </trkpt>
      <trkpt lat="48.40851" lon="2.71964">
        <ele>59</ele>
        <time>2014-12-02T09:37:56Z</time>
      </trkpt>
      <trkpt lat="48.40855" lon="2.71967">
        <ele>59</ele>
        <time>2014-12-02T09:38:01Z</time>
      </trkpt>
      <trkpt lat="48.40857" lon="2.71973">
        <ele>60</ele>
        <time>2014-12-02T09:38:04Z</time>
      </trkpt>
      <trkpt lat="48.40859" lon="2.7198">
        <ele>60</ele>
        <time>2014-12-02T09:38:07Z</time>
      </trkpt>
      <trkpt lat="48.40864" lon="2.71982">
        <ele>62</ele>
        <time>2014-12-02T09:38:11Z</time>
      </trkpt>
      <trkpt lat="48.40873" lon="2.71976">
        <ele>64</ele>
        <time>2014-12-02T09:38:23Z</time>
      </trkpt>
      <trkpt lat="48.40876" lon="2.71973">
        <ele>64</ele>
        <time>2014-12-02T09:38:26Z</time>
      </trkpt>
      <trkpt lat="48.40885" lon="2.71968">
        <ele>62</ele>
        <time>2014-12-02T09:38:39Z</time>
      </trkpt>
      <trkpt lat="48.40893" lon="2.71962">
        <ele>61</ele>
        <time>2014-12-02T09:38:46Z</time>
      </trkpt>
      <trkpt lat="48.40927" lon="2.71938">
        <ele>61</ele>
        <time>2014-12-02T09:39:15Z</time>
      </trkpt>
      <trkpt lat="48.40936" lon="2.71931">
        <ele>60</ele>
        <time>2014-12-02T09:39:25Z</time>
      </trkpt>
      <trkpt lat="48.40945" lon="2.71929">
        <ele>60</ele>
        <time>2014-12-02T09:39:32Z</time>
      </trkpt>
      <trkpt lat="48.40954" lon="2.71922">
        <ele>60</ele>
        <time>2014-12-02T09:39:39Z</time>
      </trkpt>
      <trkpt lat="48.4096" lon="2.71911">
        <ele>61</ele>
        <time>2014-12-02T09:39:49Z</time>
      </trkpt>
      <trkpt lat="48.40969" lon="2.71905">
        <ele>61</ele>
        <time>2014-12-02T09:39:59Z</time>
      </trkpt>
      <trkpt lat="48.40986" lon="2.71898">
        <ele>63</ele>
        <time>2014-12-02T09:40:14Z</time>
      </trkpt>
      <trkpt lat="48.40994" lon="2.7189">
        <ele>63</ele>
        <time>2014-12-02T09:40:26Z</time>
      </trkpt>
      <trkpt lat="48.41003" lon="2.71884">
        <ele>63</ele>
        <time>2014-12-02T09:40:37Z</time>
      </trkpt>
      <trkpt lat="48.41012" lon="2.7188">
        <ele>64</ele>
        <time>2014-12-02T09:40:48Z</time>
      </trkpt>
      <trkpt lat="48.41027" lon="2.71864">
        <ele>65</ele>
        <time>2014-12-02T09:41:08Z</time>
      </trkpt>
      <trkpt lat="48.41036" lon="2.71857">
        <ele>65</ele>
        <time>2014-12-02T09:41:16Z</time>
      </trkpt>
      <trkpt lat="48.4106" lon="2.71834">
        <ele>67</ele>
        <time>2014-12-02T09:41:49Z</time>
      </trkpt>
      <trkpt lat="48.41073" lon="2.71824">
        <ele>68</ele>
        <time>2014-12-02T09:42:04Z</time>
      </trkpt>
      <trkpt lat="48.41078" lon="2.71822">
        <ele>68</ele>
        <time>2014-12-02T09:42:09Z</time>
      </trkpt>
      <trkpt lat="48.41083" lon="2.71819">
        <ele>69</ele>
        <time>2014-12-02T09:42:15Z</time>
      </trkpt>
      <trkpt lat="48.41104" lon="2.71805">
        <ele>73</ele>
        <time>2014-12-02T09:42:45Z</time>
      </trkpt>
      <trkpt lat="48.41115" lon="2.71792">
        <ele>74</ele>
        <time>2014-12-02T09:43:00Z</time>
      </trkpt>
      <trkpt lat="48.41125" lon="2.71785">
        <ele>72</ele>
        <time>2014-12-02T09:43:09Z</time>
      </trkpt>
      <trkpt lat="48.41129" lon="2.71786">
        <ele>73</ele>
        <time>2014-12-02T09:43:13Z</time>
      </trkpt>
      <trkpt lat="48.41134" lon="2.71782">
        <ele>73</ele>
        <time>2014-12-02T09:43:16Z</time>
      </trkpt>
      <trkpt lat="48.41139" lon="2.71778">
        <ele>73</ele>
        <time>2014-12-02T09:43:21Z</time>
      </trkpt>
      <trkpt lat="48.41148" lon="2.71771">
        <ele>73</ele>
        <time>2014-12-02T09:43:32Z</time>
      </trkpt>
      <trkpt lat="48.41182" lon="2.71755">
        <ele>77</ele>
        <time>2014-12-02T09:44:03Z</time>
      </trkpt>
      <trkpt lat="48.41192" lon="2.71737">
        <ele>78</ele>
        <time>2014-12-02T09:44:21Z</time>
      </trkpt>
      <trkpt lat="48.41198" lon="2.71736">
        <ele>78</ele>
        <time>2014-12-02T09:44:25Z</time>
      </trkpt>
      <trkpt lat="48.41202" lon="2.71732">
        <ele>77</ele>
        <time>2014-12-02T09:44:33Z</time>
      </trkpt>
      <trkpt lat="48.41203" lon="2.71726">
        <ele>76</ele>
        <time>2014-12-02T09:44:38Z</time>
      </trkpt>
      <trkpt lat="48.41199" lon="2.71722">
        <ele>76</ele>
        <time>2014-12-02T09:44:44Z</time>
      </trkpt>
      <trkpt lat="48.41198" lon="2.71719">
        <ele>76</ele>
        <time>2014-12-02T09:44:50Z</time>
      </trkpt>
      <trkpt lat="48.41193" lon="2.71715">
        <ele>77</ele>
        <time>2014-12-02T09:44:55Z</time>
      </trkpt>
      <trkpt lat="48.41189" lon="2.71698">
        <ele>78</ele>
        <time>2014-12-02T09:45:04Z</time>
      </trkpt>
      <trkpt lat="48.41186" lon="2.71683">
        <ele>76</ele>
        <time>2014-12-02T09:45:13Z</time>
      </trkpt>
      <trkpt lat="48.41182" lon="2.71678">
        <ele>76</ele>
        <time>2014-12-02T09:45:17Z</time>
      </trkpt>
      <trkpt lat="48.41177" lon="2.71673">
        <ele>76</ele>
        <time>2014-12-02T09:45:29Z</time>
      </trkpt>
      <trkpt lat="48.41173" lon="2.7166">
        <ele>75</ele>
        <time>2014-12-02T09:45:38Z</time>
      </trkpt>
      <trkpt lat="48.41169" lon="2.71649">
        <ele>76</ele>
        <time>2014-12-02T09:45:48Z</time>
      </trkpt>
      <trkpt lat="48.41167" lon="2.71642">
        <ele>76</ele>
        <time>2014-12-02T09:45:52Z</time>
      </trkpt>
      <trkpt lat="48.41164" lon="2.71635">
        <ele>76</ele>
        <time>2014-12-02T09:45:55Z</time>
      </trkpt>
      <trkpt lat="48.4116" lon="2.71628">
        <ele>75</ele>
        <time>2014-12-02T09:45:58Z</time>
      </trkpt>
      <trkpt lat="48.41162" lon="2.71622">
        <ele>75</ele>
        <time>2014-12-02T09:46:02Z</time>
      </trkpt>
      <trkpt lat="48.41163" lon="2.71614">
        <ele>74</ele>
        <time>2014-12-02T09:46:06Z</time>
      </trkpt>
      <trkpt lat="48.41159" lon="2.71609">
        <ele>74</ele>
        <time>2014-12-02T09:46:11Z</time>
      </trkpt>
      <trkpt lat="48.4115" lon="2.71593">
        <ele>78</ele>
        <time>2014-12-02T09:46:21Z</time>
      </trkpt>
      <trkpt lat="48.41147" lon="2.71572">
        <ele>78</ele>
        <time>2014-12-02T09:46:31Z</time>
      </trkpt>
      <trkpt lat="48.41143" lon="2.71566">
        <ele>78</ele>
        <time>2014-12-02T09:46:38Z</time>
      </trkpt>
      <trkpt lat="48.41141" lon="2.71558">
        <ele>78</ele>
        <time>2014-12-02T09:46:41Z</time>
      </trkpt>
      <trkpt lat="48.41141" lon="2.71551">
        <ele>78</ele>
        <time>2014-12-02T09:46:44Z</time>
      </trkpt>
      <trkpt lat="48.41133" lon="2.71532">
        <ele>76</ele>
        <time>2014-12-02T09:46:56Z</time>
      </trkpt>
      <trkpt lat="48.41128" lon="2.71527">
        <ele>75</ele>
        <time>2014-12-02T09:47:00Z</time>
      </trkpt>
      <trkpt lat="48.41129" lon="2.71521">
        <ele>75</ele>
        <time>2014-12-02T09:47:12Z</time>
      </trkpt>
      <trkpt lat="48.41126" lon="2.71515">
        <ele>76</ele>
        <time>2014-12-02T09:47:19Z</time>
      </trkpt>
      <trkpt lat="48.41121" lon="2.7151">
        <ele>75</ele>
        <time>2014-12-02T09:47:25Z</time>
      </trkpt>
      <trkpt lat="48.41119" lon="2.71504">
        <ele>75</ele>
        <time>2014-12-02T09:47:29Z</time>
      </trkpt>
      <trkpt lat="48.41117" lon="2.71497">
        <ele>75</ele>
        <time>2014-12-02T09:47:35Z</time>
      </trkpt>
      <trkpt lat="48.41115" lon="2.71491">
        <ele>75</ele>
        <time>2014-12-02T09:47:38Z</time>
      </trkpt>
      <trkpt lat="48.41112" lon="2.71485">
        <ele>76</ele>
        <time>2014-12-02T09:47:41Z</time>
      </trkpt>
      <trkpt lat="48.41112" lon="2.71476">
        <ele>76</ele>
        <time>2014-12-02T09:47:46Z</time>
      </trkpt>
      <trkpt lat="48.41098" lon="2.71427">
        <ele>72</ele>
        <time>2014-12-02T09:48:19Z</time>
      </trkpt>
      <trkpt lat="48.41095" lon="2.71419">
        <ele>71</ele>
        <time>2014-12-02T09:48:23Z</time>
      </trkpt>
      <trkpt lat="48.41093" lon="2.71413">
        <ele>71</ele>
        <time>2014-12-02T09:48:27Z</time>
      </trkpt>
      <trkpt lat="48.41082" lon="2.71387">
        <ele>67</ele>
        <time>2014-12-02T09:48:48Z</time>
      </trkpt>
      <trkpt lat="48.41074" lon="2.71372">
        <ele>67</ele>
        <time>2014-12-02T09:48:59Z</time>
      </trkpt>
      <trkpt lat="48.41075" lon="2.71357">
        <ele>66</ele>
        <time>2014-12-02T09:49:07Z</time>
      </trkpt>
      <trkpt lat="48.41071" lon="2.71352">
        <ele>65</ele>
        <time>2014-12-02T09:49:11Z</time>
      </trkpt>
      <trkpt lat="48.41069" lon="2.71345">
        <ele>64</ele>
        <time>2014-12-02T09:49:15Z</time>
      </trkpt>
      <trkpt lat="48.41063" lon="2.71335">
        <ele>64</ele>
        <time>2014-12-02T09:49:23Z</time>
      </trkpt>
      <trkpt lat="48.4106" lon="2.71329">
        <ele>63</ele>
        <time>2014-12-02T09:49:27Z</time>
      </trkpt>
      <trkpt lat="48.41058" lon="2.71322">
        <ele>64</ele>
        <time>2014-12-02T09:49:34Z</time>
      </trkpt>
      <trkpt lat="48.41057" lon="2.71314">
        <ele>66</ele>
        <time>2014-12-02T09:49:41Z</time>
      </trkpt>
      <trkpt lat="48.41048" lon="2.71293">
        <ele>68</ele>
        <time>2014-12-02T09:49:51Z</time>
      </trkpt>
      <trkpt lat="48.41041" lon="2.71265">
        <ele>66</ele>
        <time>2014-12-02T09:50:08Z</time>
      </trkpt>
      <trkpt lat="48.41039" lon="2.71257">
        <ele>66</ele>
        <time>2014-12-02T09:50:11Z</time>
      </trkpt>
      <trkpt lat="48.41036" lon="2.71252">
        <ele>66</ele>
        <time>2014-12-02T09:50:15Z</time>
      </trkpt>
      <trkpt lat="48.41032" lon="2.71245">
        <ele>67</ele>
        <time>2014-12-02T09:50:20Z</time>
      </trkpt>
      <trkpt lat="48.41017" lon="2.71215">
        <ele>65</ele>
        <time>2014-12-02T09:50:43Z</time>
      </trkpt>
      <trkpt lat="48.41014" lon="2.71201">
        <ele>64</ele>
        <time>2014-12-02T09:50:51Z</time>
      </trkpt>
      <trkpt lat="48.41005" lon="2.71161">
        <ele>68</ele>
        <time>2014-12-02T09:51:22Z</time>
      </trkpt>
      <trkpt lat="48.40994" lon="2.71138">
        <ele>69</ele>
        <time>2014-12-02T09:51:40Z</time>
      </trkpt>
      <trkpt lat="48.4099" lon="2.71125">
        <ele>69</ele>
        <time>2014-12-02T09:51:48Z</time>
      </trkpt>
      <trkpt lat="48.40991" lon="2.71111">
        <ele>69</ele>
        <time>2014-12-02T09:51:57Z</time>
      </trkpt>
      <trkpt lat="48.40987" lon="2.71096">
        <ele>69</ele>
        <time>2014-12-02T09:52:04Z</time>
      </trkpt>
      <trkpt lat="48.40972" lon="2.71062">
        <ele>70</ele>
        <time>2014-12-02T09:52:27Z</time>
      </trkpt>
      <trkpt lat="48.40966" lon="2.71049">
        <ele>70</ele>
        <time>2014-12-02T09:52:34Z</time>
      </trkpt>
      <trkpt lat="48.4096" lon="2.71038">
        <ele>69</ele>
        <time>2014-12-02T09:52:42Z</time>
      </trkpt>
      <trkpt lat="48.40948" lon="2.70997">
        <ele>69</ele>
        <time>2014-12-02T09:53:06Z</time>
      </trkpt>
      <trkpt lat="48.40944" lon="2.70984">
        <ele>70</ele>
        <time>2014-12-02T09:53:15Z</time>
      </trkpt>
      <trkpt lat="48.40939" lon="2.70973">
        <ele>70</ele>
        <time>2014-12-02T09:53:21Z</time>
      </trkpt>
      <trkpt lat="48.40937" lon="2.70959">
        <ele>72</ele>
        <time>2014-12-02T09:53:29Z</time>
      </trkpt>
      <trkpt lat="48.40933" lon="2.70947">
        <ele>72</ele>
        <time>2014-12-02T09:53:36Z</time>
      </trkpt>
      <trkpt lat="48.40929" lon="2.70933">
        <ele>73</ele>
        <time>2014-12-02T09:53:45Z</time>
      </trkpt>
      <trkpt lat="48.40916" lon="2.70894">
        <ele>73</ele>
        <time>2014-12-02T09:54:10Z</time>
      </trkpt>
      <trkpt lat="48.4091" lon="2.70881">
        <ele>72</ele>
        <time>2014-12-02T09:54:20Z</time>
      </trkpt>
      <trkpt lat="48.40897" lon="2.70843">
        <ele>74</ele>
        <time>2014-12-02T09:54:46Z</time>
      </trkpt>
      <trkpt lat="48.40892" lon="2.70832">
        <ele>74</ele>
        <time>2014-12-02T09:54:54Z</time>
      </trkpt>
      <trkpt lat="48.40874" lon="2.70776">
        <ele>70</ele>
        <time>2014-12-02T09:55:28Z</time>
      </trkpt>
      <trkpt lat="48.4087" lon="2.70771">
        <ele>70</ele>
        <time>2014-12-02T09:55:33Z</time>
      </trkpt>
      <trkpt lat="48.4087" lon="2.70764">
        <ele>71</ele>
        <time>2014-12-02T09:55:39Z</time>
      </trkpt>
      <trkpt lat="48.40869" lon="2.70757">
        <ele>71</ele>
        <time>2014-12-02T09:55:44Z</time>
      </trkpt>
      <trkpt lat="48.40865" lon="2.70751">
        <ele>71</ele>
        <time>2014-12-02T09:55:48Z</time>
      </trkpt>
      <trkpt lat="48.40865" lon="2.70744">
        <ele>71</ele>
        <time>2014-12-02T09:55:55Z</time>
      </trkpt>
      <trkpt lat="48.40865" lon="2.70737">
        <ele>71</ele>
        <time>2014-12-02T09:56:01Z</time>
      </trkpt>
      <trkpt lat="48.40861" lon="2.7073">
        <ele>71</ele>
        <time>2014-12-02T09:56:06Z</time>
      </trkpt>
      <trkpt lat="48.40846" lon="2.70724">
        <ele>68</ele>
        <time>2014-12-02T09:56:18Z</time>
      </trkpt>
      <trkpt lat="48.40831" lon="2.70721">
        <ele>66</ele>
        <time>2014-12-02T09:56:31Z</time>
      </trkpt>
      <trkpt lat="48.40826" lon="2.70723">
        <ele>66</ele>
        <time>2014-12-02T09:56:35Z</time>
      </trkpt>
      <trkpt lat="48.40792" lon="2.70705">
        <ele>68</ele>
        <time>2014-12-02T09:57:01Z</time>
      </trkpt>
      <trkpt lat="48.40786" lon="2.70704">
        <ele>69</ele>
        <time>2014-12-02T09:57:05Z</time>
      </trkpt>
      <trkpt lat="48.40776" lon="2.70699">
        <ele>69</ele>
        <time>2014-12-02T09:57:12Z</time>
      </trkpt>
      <trkpt lat="48.40771" lon="2.70698">
        <ele>69</ele>
        <time>2014-12-02T09:57:21Z</time>
      </trkpt>
      <trkpt lat="48.40766" lon="2.70697">
        <ele>69</ele>
        <time>2014-12-02T09:57:25Z</time>
      </trkpt>
      <trkpt lat="48.40747" lon="2.70689">
        <ele>67</ele>
        <time>2014-12-02T09:57:45Z</time>
      </trkpt>
      <trkpt lat="48.40729" lon="2.70682">
        <ele>64</ele>
        <time>2014-12-02T09:57:56Z</time>
      </trkpt>
      <trkpt lat="48.40724" lon="2.70681">
        <ele>64</ele>
        <time>2014-12-02T09:58:00Z</time>
      </trkpt>
      <trkpt lat="48.4071" lon="2.70674">
        <ele>67</ele>
        <time>2014-12-02T09:58:14Z</time>
      </trkpt>
      <trkpt lat="48.40705" lon="2.70673">
        <ele>67</ele>
        <time>2014-12-02T09:58:20Z</time>
      </trkpt>
      <trkpt lat="48.40688" lon="2.70662">
        <ele>64</ele>
        <time>2014-12-02T09:58:37Z</time>
      </trkpt>
      <trkpt lat="48.40673" lon="2.70661">
        <ele>65</ele>
        <time>2014-12-02T09:58:47Z</time>
      </trkpt>
      <trkpt lat="48.40668" lon="2.7066">
        <ele>65</ele>
        <time>2014-12-02T09:58:54Z</time>
      </trkpt>
      <trkpt lat="48.40662" lon="2.70656">
        <ele>65</ele>
        <time>2014-12-02T09:58:58Z</time>
      </trkpt>
      <trkpt lat="48.40657" lon="2.70653">
        <ele>66</ele>
        <time>2014-12-02T09:59:03Z</time>
      </trkpt>
      <trkpt lat="48.40653" lon="2.7065">
        <ele>66</ele>
        <time>2014-12-02T09:59:08Z</time>
      </trkpt>
      <trkpt lat="48.40648" lon="2.70646">
        <ele>66</ele>
        <time>2014-12-02T09:59:14Z</time>
      </trkpt>
      <trkpt lat="48.40633" lon="2.70647">
        <ele>65</ele>
        <time>2014-12-02T09:59:23Z</time>
      </trkpt>
      <trkpt lat="48.40596" lon="2.70631">
        <ele>70</ele>
        <time>2014-12-02T09:59:53Z</time>
      </trkpt>
      <trkpt lat="48.40582" lon="2.70628">
        <ele>73</ele>
        <time>2014-12-02T10:00:08Z</time>
      </trkpt>
      <trkpt lat="48.40572" lon="2.70628">
        <ele>73</ele>
        <time>2014-12-02T10:00:17Z</time>
      </trkpt>
      <trkpt lat="48.40562" lon="2.70626">
        <ele>73</ele>
        <time>2014-12-02T10:00:26Z</time>
      </trkpt>
      <trkpt lat="48.40546" lon="2.70621">
        <ele>71</ele>
        <time>2014-12-02T10:00:40Z</time>
      </trkpt>
      <trkpt lat="48.40539" lon="2.7062">
        <ele>70</ele>
        <time>2014-12-02T10:00:47Z</time>
      </trkpt>
      <trkpt lat="48.40535" lon="2.70625">
        <ele>70</ele>
        <time>2014-12-02T10:00:53Z</time>
      </trkpt>
      <trkpt lat="48.40526" lon="2.7062">
        <ele>71</ele>
        <time>2014-12-02T10:01:01Z</time>
      </trkpt>
      <trkpt lat="48.40517" lon="2.70612">
        <ele>71</ele>
        <time>2014-12-02T10:01:08Z</time>
      </trkpt>
      <trkpt lat="48.40513" lon="2.70608">
        <ele>70</ele>
        <time>2014-12-02T10:01:12Z</time>
      </trkpt>
      <trkpt lat="48.40504" lon="2.70601">
        <ele>70</ele>
        <time>2014-12-02T10:01:19Z</time>
      </trkpt>
      <trkpt lat="48.40494" lon="2.70598">
        <ele>69</ele>
        <time>2014-12-02T10:01:25Z</time>
      </trkpt>
      <trkpt lat="48.40489" lon="2.70596">
        <ele>69</ele>
        <time>2014-12-02T10:01:28Z</time>
      </trkpt>
      <trkpt lat="48.40475" lon="2.70587">
        <ele>70</ele>
        <time>2014-12-02T10:01:42Z</time>
      </trkpt>
      <trkpt lat="48.40465" lon="2.70587">
        <ele>68</ele>
        <time>2014-12-02T10:01:49Z</time>
      </trkpt>
      <trkpt lat="48.40461" lon="2.70583">
        <ele>68</ele>
        <time>2014-12-02T10:01:53Z</time>
      </trkpt>
      <trkpt lat="48.40452" lon="2.70583">
        <ele>69</ele>
        <time>2014-12-02T10:02:02Z</time>
      </trkpt>
      <trkpt lat="48.40448" lon="2.70585">
        <ele>69</ele>
        <time>2014-12-02T10:02:08Z</time>
      </trkpt>
      <trkpt lat="48.40444" lon="2.70586">
        <ele>69</ele>
        <time>2014-12-02T10:02:11Z</time>
      </trkpt>
      <trkpt lat="48.40433" lon="2.70582">
        <ele>69</ele>
        <time>2014-12-02T10:02:23Z</time>
      </trkpt>
      <trkpt lat="48.40403" lon="2.70578">
        <ele>67</ele>
        <time>2014-12-02T10:02:49Z</time>
      </trkpt>
      <trkpt lat="48.40381" lon="2.70544">
        <ele>63</ele>
        <time>2014-12-02T10:03:20Z</time>
      </trkpt>
      <trkpt lat="48.40376" lon="2.70536">
        <ele>61</ele>
        <time>2014-12-02T10:03:25Z</time>
      </trkpt>
      <trkpt lat="48.40364" lon="2.70529">
        <ele>60</ele>
        <time>2014-12-02T10:03:36Z</time>
      </trkpt>
      <trkpt lat="48.40359" lon="2.70523">
        <ele>60</ele>
        <time>2014-12-02T10:03:39Z</time>
      </trkpt>
      <trkpt lat="48.40354" lon="2.70511">
        <ele>60</ele>
        <time>2014-12-02T10:03:45Z</time>
      </trkpt>
      <trkpt lat="48.40348" lon="2.70499">
        <ele>59</ele>
        <time>2014-12-02T10:03:51Z</time>
      </trkpt>
      <trkpt lat="48.40346" lon="2.70491">
        <ele>59</ele>
        <time>2014-12-02T10:03:57Z</time>
      </trkpt>
      <trkpt lat="48.40345" lon="2.70484">
        <ele>59</ele>
        <time>2014-12-02T10:04:03Z</time>
      </trkpt>
      <trkpt lat="48.40343" lon="2.70478">
        <ele>59</ele>
        <time>2014-12-02T10:04:09Z</time>
      </trkpt>
      <trkpt lat="48.4033" lon="2.70438">
        <ele>68</ele>
        <time>2014-12-02T10:04:41Z</time>
      </trkpt>
      <trkpt lat="48.4033" lon="2.70431">
        <ele>69</ele>
        <time>2014-12-02T10:04:48Z</time>
      </trkpt>
      <trkpt lat="48.40323" lon="2.7042">
        <ele>69</ele>
        <time>2014-12-02T10:04:59Z</time>
      </trkpt>
      <trkpt lat="48.40316" lon="2.70393">
        <ele>64</ele>
        <time>2014-12-02T10:05:20Z</time>
      </trkpt>
      <trkpt lat="48.40305" lon="2.70371">
        <ele>64</ele>
        <time>2014-12-02T10:05:37Z</time>
      </trkpt>
      <trkpt lat="48.40298" lon="2.70361">
        <ele>64</ele>
        <time>2014-12-02T10:05:49Z</time>
      </trkpt>
      <trkpt lat="48.40285" lon="2.70353">
        <ele>65</ele>
        <time>2014-12-02T10:05:59Z</time>
      </trkpt>
      <trkpt lat="48.40265" lon="2.70347">
        <ele>70</ele>
        <time>2014-12-02T10:06:21Z</time>
      </trkpt>
      <trkpt lat="48.4026" lon="2.70345">
        <ele>70</ele>
        <time>2014-12-02T10:06:28Z</time>
      </trkpt>
      <trkpt lat="48.40256" lon="2.70341">
        <ele>69</ele>
        <time>2014-12-02T10:06:32Z</time>
      </trkpt>
      <trkpt lat="48.40254" lon="2.70333">
        <ele>68</ele>
        <time>2014-12-02T10:06:36Z</time>
      </trkpt>
      <trkpt lat="48.40249" lon="2.7031">
        <ele>62</ele>
        <time>2014-12-02T10:06:53Z</time>
      </trkpt>
      <trkpt lat="48.40245" lon="2.70304">
        <ele>61</ele>
        <time>2014-12-02T10:06:59Z</time>
      </trkpt>
      <trkpt lat="48.4024" lon="2.70308">
        <ele>60</ele>
        <time>2014-12-02T10:07:25Z</time>
      </trkpt>
      <trkpt lat="48.40238" lon="2.70307">
        <ele>60</ele>
        <time>2014-12-02T10:07:47Z</time>
      </trkpt>
      <trkpt lat="48.40236" lon="2.70304">
        <ele>60</ele>
        <time>2014-12-02T10:08:09Z</time>
      </trkpt>
      <trkpt lat="48.40234" lon="2.70288">
        <ele>56</ele>
        <time>2014-12-02T10:08:21Z</time>
      </trkpt>
      <trkpt lat="48.4023" lon="2.70281">
        <ele>57</ele>
        <time>2014-12-02T10:08:25Z</time>
      </trkpt>
      <trkpt lat="48.4023" lon="2.70279">
        <ele>61</ele>
        <time>2014-12-02T10:08:39Z</time>
      </trkpt>
      <trkpt lat="48.40232" lon="2.70272">
        <ele>62</ele>
        <time>2014-12-02T10:08:55Z</time>
      </trkpt>
      <trkpt lat="48.40228" lon="2.70267">
        <ele>62</ele>
        <time>2014-12-02T10:09:00Z</time>
      </trkpt>
      <trkpt lat="48.40212" lon="2.70231">
        <ele>58</ele>
        <time>2014-12-02T10:09:29Z</time>
      </trkpt>
      <trkpt lat="48.40206" lon="2.70216">
        <ele>58</ele>
        <time>2014-12-02T10:09:39Z</time>
      </trkpt>
      <trkpt lat="48.40202" lon="2.70203">
        <ele>57</ele>
        <time>2014-12-02T10:09:47Z</time>
      </trkpt>
      <trkpt lat="48.402" lon="2.70197">
        <ele>58</ele>
        <time>2014-12-02T10:09:52Z</time>
      </trkpt>
      <trkpt lat="48.40195" lon="2.70192">
        <ele>58</ele>
        <time>2014-12-02T10:09:55Z</time>
      </trkpt>
      <trkpt lat="48.4019" lon="2.70172">
        <ele>59</ele>
        <time>2014-12-02T10:10:06Z</time>
      </trkpt>
      <trkpt lat="48.40191" lon="2.70153">
        <ele>63</ele>
        <time>2014-12-02T10:10:18Z</time>
      </trkpt>
      <trkpt lat="48.40181" lon="2.70116">
        <ele>68</ele>
        <time>2014-12-02T10:10:39Z</time>
      </trkpt>
      <trkpt lat="48.40172" lon="2.70094">
        <ele>68</ele>
        <time>2014-12-02T10:10:51Z</time>
      </trkpt>
      <trkpt lat="48.40169" lon="2.70089">
        <ele>68</ele>
        <time>2014-12-02T10:10:55Z</time>
      </trkpt>
      <trkpt lat="48.40168" lon="2.70082">
        <ele>68</ele>
        <time>2014-12-02T10:10:59Z</time>
      </trkpt>
      <trkpt lat="48.40163" lon="2.70079">
        <ele>69</ele>
        <time>2014-12-02T10:11:03Z</time>
      </trkpt>
      <trkpt lat="48.40153" lon="2.70079">
        <ele>68</ele>
        <time>2014-12-02T10:11:11Z</time>
      </trkpt>
      <trkpt lat="48.40131" lon="2.70082">
        <ele>69</ele>
        <time>2014-12-02T10:11:45Z</time>
      </trkpt>
      <trkpt lat="48.40128" lon="2.70087">
        <ele>69</ele>
        <time>2014-12-02T10:11:52Z</time>
      </trkpt>
      <trkpt lat="48.40126" lon="2.70093">
        <ele>69</ele>
        <time>2014-12-02T10:11:56Z</time>
      </trkpt>
      <trkpt lat="48.40121" lon="2.70097">
        <ele>69</ele>
        <time>2014-12-02T10:12:01Z</time>
      </trkpt>
      <trkpt lat="48.40117" lon="2.70095">
        <ele>69</ele>
        <time>2014-12-02T10:12:06Z</time>
      </trkpt>
      <trkpt lat="48.40091" lon="2.70071">
        <ele>69</ele>
        <time>2014-12-02T10:12:31Z</time>
      </trkpt>
      <trkpt lat="48.40086" lon="2.70073">
        <ele>70</ele>
        <time>2014-12-02T10:12:39Z</time>
      </trkpt>
      <trkpt lat="48.4008" lon="2.70083">
        <ele>69</ele>
        <time>2014-12-02T10:12:50Z</time>
      </trkpt>
      <trkpt lat="48.4007" lon="2.70085">
        <ele>69</ele>
        <time>2014-12-02T10:12:58Z</time>
      </trkpt>
      <trkpt lat="48.40038" lon="2.70109">
        <ele>68</ele>
        <time>2014-12-02T10:13:32Z</time>
      </trkpt>
      <trkpt lat="48.40013" lon="2.70115">
        <ele>67</ele>
        <time>2014-12-02T10:13:53Z</time>
      </trkpt>
    </trkseg>
  </trk>
</gpx>